Rye Patch, Nevada
Current Conditions -  °F | °C
As of 1:53 AM on Saturday 29 Nov 2014 (Local Time) from KLOL Reporting Station
Broken Clouds Broken Clouds  
Wind Chill: 52°   Ceiling: 11000
Heat Index: 52°   Visibility: 10mi
Dew Point: 30°   Wind: 29mph
Humidity: 43%   Direction: 220°SW
Pressure: 29.76"   Gusts: 37mph
Location:  40.3545°N, 118.628°W
Report Text: KLOL 290953Z AUTO 22025G32KT 10SM BKN110 11/M01 A2976 RMK AO2 PK WND 22034/0924 RAE0858 SLP050 P0000 T01111011
Loading
Personal Weather Stations






























Interactive Weather Map New forecast layout! Learn more

10-Day Weather Forecast

Advertisements
Track Severe Weather on mobile